createdAt,value
2019-04-16T00:01:55.576Z,2.60
2019-04-16T00:07:24.635Z,1.90
2019-04-16T00:13:27.040Z,1.80
2019-04-16T00:15:57.092Z,1.90
2019-04-16T00:18:26.600Z,1.50
2019-04-16T00:21:14.930Z,1.67
2019-04-16T00:24:03.231Z,1.83
2019-04-16T00:32:52.920Z,1.67
2019-04-16T00:35:22.428Z,1.53
2019-04-16T00:37:52.406Z,1.53
2019-04-16T00:40:26.378Z,1.70
2019-04-16T00:43:05.450Z,1.70
2019-04-16T00:45:35.000Z,1.70
2019-04-16T00:48:04.603Z,1.73
2019-04-16T00:50:34.027Z,2.00
2019-04-16T00:53:42.682Z,1.97
2019-04-16T00:56:13.389Z,1.70
2019-04-16T00:58:43.380Z,1.70
2019-04-16T01:01:12.810Z,1.70
2019-04-16T01:06:51.024Z,2.10
2019-04-16T01:09:20.382Z,1.80
2019-04-16T01:11:49.839Z,1.90
2019-04-16T01:14:21.008Z,1.90
2019-04-16T01:16:50.360Z,2.13
2019-04-16T01:22:16.012Z,2.30
2019-04-16T01:24:49.204Z,1.83
2019-04-16T01:27:17.654Z,1.60
2019-04-16T01:30:26.447Z,1.80
2019-04-16T01:39:14.817Z,2.00
2019-04-16T01:41:31.930Z,2.50
2019-04-16T01:44:01.436Z,2.20
2019-04-16T01:46:32.960Z,1.67
2019-04-16T01:52:03.440Z,2.20
2019-04-16T01:54:32.845Z,1.60
2019-04-16T01:57:02.728Z,2.00
2019-04-16T02:02:20.796Z,1.60
2019-04-16T02:04:52.133Z,2.10
2019-04-16T02:07:21.346Z,1.80
2019-04-16T02:09:50.779Z,1.70
2019-04-16T02:12:20.284Z,1.97
2019-04-16T02:15:01.590Z,2.07
2019-04-16T02:17:49.906Z,1.83
2019-04-16T02:23:45.405Z,1.90
2019-04-16T02:29:30.548Z,1.67
2019-04-16T02:32:00.556Z,2.10
2019-04-16T02:35:09.321Z,1.70
2019-04-16T02:40:53.437Z,1.80
2019-04-16T02:43:39.726Z,1.93
2019-04-16T02:49:08.139Z,2.00
2019-04-16T02:51:56.353Z,1.73
2019-04-16T02:54:44.756Z,1.80
2019-04-16T02:59:56.871Z,1.97
2019-04-16T03:02:45.093Z,2.07
2019-04-16T03:08:09.624Z,1.50
2019-04-16T03:10:41.851Z,1.90
2019-04-16T03:13:52.825Z,2.00
2019-04-16T03:22:19.579Z,1.70
2019-04-16T03:27:57.632Z,2.00
2019-04-16T03:30:27.218Z,1.80
2019-04-16T03:32:56.713Z,1.93
2019-04-16T03:35:26.820Z,2.67
2019-04-16T03:37:57.274Z,2.43
2019-04-16T03:40:37.918Z,2.50
2019-04-16T03:43:07.287Z,2.43
2019-04-16T03:46:16.370Z,2.60
2019-04-16T03:51:48.994Z,2.40
2019-04-16T03:54:57.630Z,2.10
2019-04-16T03:57:27.156Z,2.10
2019-04-16T03:59:56.622Z,2.57
2019-04-16T04:02:26.076Z,2.00
2019-04-16T04:05:35.712Z,2.40
2019-04-16T04:08:06.099Z,2.20
2019-04-16T04:10:37.191Z,2.23
2019-04-16T04:13:06.760Z,3.30
2019-04-16T04:18:44.881Z,2.40
2019-04-16T04:24:31.375Z,2.20
2019-04-16T04:26:59.752Z,2.87
2019-04-16T04:29:30.058Z,2.93
2019-04-16T04:32:03.067Z,2.30
2019-04-16T04:37:56.432Z,2.40
2019-04-16T04:40:25.846Z,2.23
2019-04-16T04:48:46.254Z,2.50
2019-04-16T04:51:15.616Z,4.30
2019-04-16T04:53:47.585Z,2.93
2019-04-16T04:59:18.990Z,2.53
2019-04-16T05:01:48.488Z,2.60
2019-04-16T05:04:36.824Z,3.10
2019-04-16T05:07:25.678Z,2.87
2019-04-16T05:10:39.822Z,3.00
2019-04-16T05:13:07.095Z,2.53
2019-04-16T05:15:36.460Z,3.00
2019-04-16T05:18:24.923Z,3.23
2019-04-16T05:20:54.352Z,3.63
2019-04-16T05:26:12.295Z,3.20
2019-04-16T05:28:45.363Z,3.03
2019-04-16T05:31:25.589Z,3.00
2019-04-16T05:36:36.150Z,3.20
2019-04-16T05:42:07.259Z,2.80
2019-04-16T05:44:36.823Z,3.57
2019-04-16T05:47:06.190Z,3.40
2019-04-16T05:53:13.211Z,2.93
2019-04-16T05:56:00.788Z,3.40
2019-04-16T06:04:12.496Z,3.80
2019-04-16T06:06:41.846Z,3.30
2019-04-16T06:09:12.257Z,3.00
2019-04-16T06:11:42.417Z,2.87
2019-04-16T06:14:30.632Z,2.70
2019-04-16T06:26:17.104Z,3.43
2019-04-16T06:32:08.433Z,3.03
2019-04-16T06:34:58.449Z,5.80
2019-04-16T06:37:47.235Z,3.13
2019-04-16T06:40:35.470Z,3.07
2019-04-16T06:43:15.516Z,2.53
2019-04-16T06:45:55.586Z,3.37
2019-04-16T06:48:29.930Z,3.10
2019-04-16T06:51:18.343Z,3.43
2019-04-16T06:54:20.952Z,2.83
2019-04-16T06:57:00.124Z,4.77
2019-04-16T06:59:39.044Z,4.40
2019-04-16T07:02:27.615Z,3.67
2019-04-16T07:05:16.161Z,3.27
2019-04-16T07:08:04.570Z,2.40
2019-04-16T07:10:44.331Z,2.33
2019-04-16T07:15:44.296Z,3.13
2019-04-16T07:18:13.769Z,2.50
2019-04-16T07:20:45.762Z,2.50
2019-04-16T07:23:14.626Z,2.83
2019-04-16T07:25:45.204Z,2.83
2019-04-16T07:28:34.227Z,3.07
2019-04-16T07:31:33.537Z,3.40
2019-04-16T07:34:12.736Z,3.80
2019-04-16T07:37:01.892Z,3.73
2019-04-16T07:51:40.033Z,3.23
2019-04-16T07:54:28.269Z,3.20
2019-04-16T07:57:37.151Z,4.10
2019-04-16T08:03:23.571Z,3.37
2019-04-16T08:05:53.039Z,2.97
2019-04-16T08:08:41.497Z,2.20
2019-04-16T08:11:11.127Z,2.60
2019-04-16T08:16:55.432Z,6.30
2019-04-16T08:19:36.070Z,2.43
2019-04-16T08:22:35.336Z,3.03
2019-04-16T08:28:13.583Z,2.70
2019-04-16T08:30:42.963Z,2.33
2019-04-16T08:33:31.230Z,2.73
2019-04-16T08:36:00.673Z,2.90
2019-04-16T08:38:34.037Z,4.83
2019-04-16T08:41:40.589Z,2.17
2019-04-16T08:44:10.779Z,2.67
2019-04-16T08:46:41.340Z,2.70
2019-04-16T08:52:10.256Z,2.67
2019-04-16T08:57:51.100Z,2.93
2019-04-16T09:03:26.948Z,1.73
2019-04-16T09:05:57.606Z,1.57
2019-04-16T09:08:45.917Z,1.90
2019-04-16T09:19:16.419Z,2.20
2019-04-16T09:21:58.476Z,2.17
2019-04-16T09:25:12.554Z,2.30
2019-04-16T09:27:41.057Z,1.90
2019-04-16T09:30:50.705Z,1.80
2019-04-16T09:36:27.227Z,1.80
2019-04-16T09:39:15.524Z,2.17
2019-04-16T09:44:46.510Z,2.00
2019-04-16T09:47:16.012Z,1.70
2019-04-16T09:49:45.338Z,2.60
2019-04-16T09:52:14.868Z,1.70
2019-04-16T09:54:45.134Z,1.53
2019-04-16T09:57:15.454Z,2.20
2019-04-16T10:00:03.747Z,2.20
2019-04-16T10:02:55.013Z,2.00
2019-04-16T10:05:26.459Z,1.70
2019-04-16T10:11:07.915Z,4.17
2019-04-16T10:16:52.307Z,1.47
2019-04-16T10:19:22.227Z,1.47
2019-04-16T10:22:32.243Z,1.50
2019-04-16T10:25:20.508Z,1.40
2019-04-16T10:28:08.790Z,1.70
2019-04-16T10:30:57.012Z,1.53
2019-04-16T10:36:46.247Z,1.67
2019-04-16T10:42:35.416Z,1.80
2019-04-16T10:48:37.915Z,1.70
2019-04-16T10:51:26.179Z,1.50
2019-04-16T10:54:14.705Z,1.77
2019-04-16T10:57:02.978Z,2.00
2019-04-16T10:59:51.385Z,1.90
2019-04-16T11:11:24.512Z,2.00
2019-04-16T11:17:21.803Z,2.27
2019-04-16T11:22:39.748Z,2.27
2019-04-16T11:25:09.245Z,1.50
2019-04-16T11:28:18.024Z,2.00
2019-04-16T11:34:17.328Z,2.70
2019-04-16T11:36:46.948Z,2.33
2019-04-16T11:39:16.447Z,2.17
2019-04-16T11:44:40.861Z,2.40
2019-04-16T11:47:10.361Z,2.70
2019-04-16T11:49:58.868Z,3.20
2019-04-16T11:55:42.460Z,3.10
2019-04-16T11:58:30.851Z,2.00
2019-04-16T12:04:27.103Z,2.00
2019-04-16T12:07:15.482Z,1.93
2019-04-16T12:10:24.156Z,1.93
2019-04-16T12:13:12.713Z,1.67
2019-04-16T12:16:01.191Z,3.47
2019-04-16T12:24:09.829Z,1.90
2019-04-16T12:26:53.357Z,2.53
2019-04-16T12:29:41.682Z,1.87
2019-04-16T12:32:30.230Z,1.63
2019-04-16T12:38:19.824Z,1.50
2019-04-16T12:41:08.080Z,2.37
2019-04-16T12:43:40.580Z,1.90
2019-04-16T12:49:33.367Z,2.20
2019-04-16T12:52:22.419Z,1.93
2019-04-16T12:55:11.654Z,1.50
2019-04-16T12:57:59.955Z,1.63
2019-04-16T13:00:48.229Z,1.83
2019-04-16T13:03:36.613Z,1.60
2019-04-16T13:12:28.166Z,1.43
2019-04-16T13:15:16.691Z,2.03
2019-04-16T13:18:05.070Z,1.33
2019-04-16T13:20:56.966Z,1.53
2019-04-16T13:24:03.789Z,2.20
2019-04-16T13:26:52.050Z,2.30
2019-04-16T13:29:29.006Z,1.90
2019-04-16T13:35:00.846Z,2.40
2019-04-16T13:40:44.911Z,2.50
2019-04-16T13:51:59.028Z,1.80
2019-04-16T13:54:47.393Z,1.77
2019-04-16T13:57:56.149Z,1.50
2019-04-16T14:00:44.486Z,2.00
2019-04-16T14:03:16.359Z,1.97
2019-04-16T14:05:45.848Z,1.70
2019-04-16T14:11:10.256Z,2.23
2019-04-16T14:13:42.008Z,2.13
2019-04-16T14:19:05.463Z,1.83
2019-04-16T14:36:32.219Z,1.73
2019-04-16T14:41:54.258Z,2.60
2019-04-16T14:50:13.964Z,2.10
2019-04-16T14:52:45.159Z,2.60
2019-04-16T14:56:00.746Z,2.70
2019-04-16T15:04:26.519Z,2.37
2019-04-16T15:07:14.908Z,2.50
2019-04-16T15:13:07.427Z,1.97
2019-04-16T15:16:07.208Z,1.73
2019-04-16T15:21:25.157Z,1.83
2019-04-16T15:24:13.490Z,1.40
2019-04-16T15:26:53.596Z,1.60
2019-04-16T15:29:42.088Z,1.53
2019-04-16T15:32:30.722Z,1.57
2019-04-16T15:35:00.192Z,1.50
2019-04-16T15:38:07.374Z,1.00
2019-04-16T15:41:17.534Z,1.30
2019-04-16T15:43:56.902Z,1.53
2019-04-16T15:46:43.811Z,1.70
2019-04-16T15:49:19.480Z,1.67
2019-04-16T15:52:02.717Z,1.47
2019-04-16T15:58:10.801Z,1.50
2019-04-16T16:03:59.992Z,2.30
2019-04-16T16:06:30.221Z,1.67
2019-04-16T16:09:07.481Z,1.60
2019-04-16T16:12:15.796Z,1.70
2019-04-16T16:21:00.668Z,2.50
2019-04-16T16:23:34.139Z,1.30
2019-04-16T16:26:01.595Z,1.60
2019-04-16T16:28:31.014Z,1.80
2019-04-16T16:31:00.440Z,1.10
2019-04-16T16:33:29.955Z,3.83
2019-04-16T16:36:00.388Z,1.60
2019-04-16T16:38:30.073Z,1.17
2019-04-16T16:40:59.501Z,1.70
2019-04-16T16:43:29.298Z,0.83
2019-04-16T16:46:05.520Z,1.23
2019-04-16T16:48:35.413Z,1.00
2019-04-16T16:51:04.882Z,0.97
2019-04-16T16:53:48.661Z,1.20
2019-04-16T16:56:26.139Z,0.90
2019-04-16T16:59:09.591Z,1.50
2019-04-16T17:02:18.297Z,1.50
2019-04-16T17:04:49.701Z,1.10
2019-04-16T17:07:19.117Z,0.90
2019-04-16T17:09:48.520Z,1.13
2019-04-16T17:12:18.006Z,0.90
2019-04-16T17:14:47.333Z,1.10
2019-04-16T17:17:16.828Z,1.20
2019-04-16T17:19:46.267Z,1.10
2019-04-16T17:22:17.444Z,1.23
2019-04-16T17:24:47.901Z,1.17
2019-04-16T17:27:17.362Z,1.60
2019-04-16T17:29:49.714Z,3.47
2019-04-16T17:35:15.591Z,2.33
2019-04-16T17:37:43.791Z,4.00
2019-04-16T17:40:22.199Z,3.03
2019-04-16T17:46:39.596Z,3.67
2019-04-16T17:49:46.977Z,3.53
2019-04-16T17:52:35.283Z,2.57
2019-04-16T18:04:30.490Z,4.03
2019-04-16T18:07:18.803Z,5.27
2019-04-16T18:10:07.138Z,3.90
2019-04-16T18:12:45.002Z,2.67
2019-04-16T18:15:22.250Z,2.53
2019-04-16T18:18:16.832Z,3.20
2019-04-16T18:24:01.879Z,3.40
2019-04-16T18:27:12.470Z,3.20
2019-04-16T18:30:23.051Z,2.63
2019-04-16T18:33:33.117Z,2.70
2019-04-16T18:36:40.579Z,3.30
2019-04-16T18:48:15.159Z,2.40
2019-04-16T18:50:44.570Z,2.07
2019-04-16T18:53:14.078Z,2.33
2019-04-16T18:55:43.515Z,2.90
2019-04-16T18:58:13.003Z,2.13
2019-04-16T19:00:50.938Z,1.83
2019-04-16T19:03:20.412Z,2.07
2019-04-16T19:05:49.856Z,2.20
2019-04-16T19:08:19.368Z,4.13
2019-04-16T19:10:48.897Z,4.07
2019-04-16T19:13:20.084Z,2.90
2019-04-16T19:15:50.111Z,3.03
2019-04-16T19:18:20.430Z,2.20
2019-04-16T19:20:51.847Z,2.67
2019-04-16T19:23:22.100Z,2.97
2019-04-16T19:25:54.730Z,1.97
2019-04-16T19:28:23.681Z,2.20
2019-04-16T19:31:32.384Z,2.20
2019-04-16T19:37:03.756Z,3.03
2019-04-16T19:39:33.181Z,4.40
2019-04-16T19:42:25.720Z,5.87
2019-04-16T19:44:54.288Z,6.00
2019-04-16T19:50:36.610Z,10.10
2019-04-16T19:53:04.505Z,6.37
2019-04-16T19:55:33.898Z,7.50
2019-04-16T19:58:03.278Z,6.47
2019-04-16T20:00:32.664Z,7.50
2019-04-16T20:03:02.075Z,7.40
2019-04-16T20:05:31.522Z,6.00
2019-04-16T20:08:01.130Z,5.87
2019-04-16T20:10:31.058Z,6.77
2019-04-16T20:13:00.442Z,7.83
2019-04-16T20:15:29.965Z,7.30
2019-04-16T20:17:59.477Z,7.73
2019-04-16T20:21:08.311Z,6.17
2019-04-16T20:32:48.931Z,5.93
2019-04-16T20:35:19.168Z,6.53
2019-04-16T20:37:50.406Z,7.13
2019-04-16T20:43:15.086Z,6.17
2019-04-16T20:45:44.412Z,6.47
2019-04-16T20:48:13.792Z,5.87
2019-04-16T20:50:43.324Z,7.43
2019-04-16T20:53:12.663Z,6.13
2019-04-16T20:55:47.121Z,6.50
2019-04-16T20:58:14.903Z,8.97
2019-04-16T21:00:47.023Z,6.77
2019-04-16T21:03:22.170Z,7.60
2019-04-16T21:05:57.748Z,5.50
2019-04-16T21:08:24.394Z,6.10
2019-04-16T21:10:51.023Z,6.00
2019-04-16T21:13:20.571Z,6.20
2019-04-16T21:15:49.945Z,6.00
2019-04-16T21:18:19.299Z,6.93
2019-04-16T21:20:51.070Z,6.23
2019-04-16T21:23:19.852Z,5.87
2019-04-16T21:25:49.218Z,5.60
2019-04-16T21:34:02.934Z,5.50
2019-04-16T21:36:51.232Z,4.00
2019-04-16T21:45:23.249Z,4.23
2019-04-16T21:51:01.292Z,4.03
2019-04-16T21:53:30.807Z,4.40
2019-04-16T22:07:40.934Z,3.93
2019-04-16T22:10:10.654Z,3.90
2019-04-16T22:16:14.708Z,4.90
2019-04-16T22:21:58.062Z,3.73
2019-04-16T22:25:06.829Z,4.30
2019-04-16T22:27:36.808Z,4.90
2019-04-16T22:36:23.166Z,4.30
2019-04-16T22:38:59.034Z,4.37
2019-04-16T22:41:47.411Z,3.73
2019-04-16T22:44:36.102Z,3.47
2019-04-16T22:47:20.606Z,3.47
2019-04-16T22:49:51.633Z,2.90
2019-04-16T22:52:21.263Z,3.27
2019-04-16T22:54:52.956Z,3.43
2019-04-16T22:57:21.928Z,3.10
2019-04-16T23:00:30.549Z,3.07
2019-04-16T23:03:39.314Z,2.90
2019-04-16T23:06:08.858Z,2.83
2019-04-16T23:08:40.509Z,3.40
2019-04-16T23:11:09.521Z,2.90
2019-04-16T23:14:18.278Z,2.47
2019-04-16T23:16:49.296Z,2.70
2019-04-16T23:19:20.339Z,2.43
2019-04-16T23:22:29.085Z,3.00
2019-04-16T23:25:17.651Z,3.30
2019-04-16T23:27:47.303Z,4.17
2019-04-16T23:30:19.222Z,2.47
2019-04-16T23:33:01.436Z,3.20
2019-04-16T23:35:31.251Z,2.80
2019-04-16T23:38:01.132Z,2.63
2019-04-16T23:41:15.532Z,2.53
2019-04-16T23:44:01.085Z,2.80
2019-04-16T23:46:49.362Z,2.50
2019-04-16T23:49:37.166Z,2.47
2019-04-16T23:58:29.173Z,2.57
